sensor_id;sensor_type;location;lat;lon;timestamp;P1;durP1;ratioP1;P2;durP2;ratioP2
9270;SDS011;4673;53.458;9.940;2022-09-09T00:01:54;28.07;;;27.77;;
9270;SDS011;4673;53.458;9.940;2022-09-09T00:04:37;26.20;;;25.90;;
9270;SDS011;4673;53.458;9.940;2022-09-09T00:21:21;27.88;;;27.52;;
9270;SDS011;4673;53.458;9.940;2022-09-09T00:23:54;27.00;;;26.70;;
9270;SDS011;4673;53.458;9.940;2022-09-09T00:31:26;25.38;;;25.08;;
9270;SDS011;4673;53.458;9.940;2022-09-09T00:33:53;26.92;;;26.63;;
9270;SDS011;4673;53.458;9.940;2022-09-09T00:36:23;27.30;;;27.00;;
9270;SDS011;4673;53.458;9.940;2022-09-09T00:38:52;24.23;;;24.02;;
9270;SDS011;4673;53.458;9.940;2022-09-09T00:47:08;23.60;;;23.40;;
9270;SDS011;4673;53.458;9.940;2022-09-09T00:55:41;24.48;;;24.25;;
9270;SDS011;4673;53.458;9.940;2022-09-09T00:58:23;23.25;;;23.05;;
9270;SDS011;4673;53.458;9.940;2022-09-09T01:00:55;24.00;;;23.70;;
9270;SDS011;4673;53.458;9.940;2022-09-09T01:03:45;20.77;;;20.58;;
9270;SDS011;4673;53.458;9.940;2022-09-09T01:06:32;20.95;;;20.75;;
9270;SDS011;4673;53.458;9.940;2022-09-09T01:14:24;22.10;;;21.90;;
9270;SDS011;4673;53.458;9.940;2022-09-09T01:17:13;20.80;;;20.60;;
9270;SDS011;4673;53.458;9.940;2022-09-09T01:20:03;21.40;;;21.20;;
9270;SDS011;4673;53.458;9.940;2022-09-09T01:28:24;19.57;;;19.37;;
9270;SDS011;4673;53.458;9.940;2022-09-09T01:30:52;19.13;;;18.93;;
9270;SDS011;4673;53.458;9.940;2022-09-09T01:33:19;19.57;;;19.47;;
9270;SDS011;4673;53.458;9.940;2022-09-09T01:35:48;16.93;;;16.83;;
9270;SDS011;4673;53.458;9.940;2022-09-09T01:38:37;19.00;;;18.80;;
9270;SDS011;4673;53.458;9.940;2022-09-09T01:41:03;18.13;;;18.03;;
9270;SDS011;4673;53.458;9.940;2022-09-09T01:43:29;18.07;;;17.97;;
9270;SDS011;4673;53.458;9.940;2022-09-09T01:45:56;18.63;;;18.43;;
9270;SDS011;4673;53.458;9.940;2022-09-09T01:48:24;18.47;;;18.37;;
9270;SDS011;4673;53.458;9.940;2022-09-09T01:50:51;18.13;;;18.03;;
9270;SDS011;4673;53.458;9.940;2022-09-09T01:53:17;18.63;;;18.50;;
9270;SDS011;4673;53.458;9.940;2022-09-09T01:58:45;17.20;;;17.10;;
9270;SDS011;4673;53.458;9.940;2022-09-09T02:03:47;17.77;;;17.67;;
9270;SDS011;4673;53.458;9.940;2022-09-09T02:06:30;17.33;;;17.23;;
9270;SDS011;4673;53.458;9.940;2022-09-09T02:09:04;17.53;;;17.43;;
9270;SDS011;4673;53.458;9.940;2022-09-09T02:11:31;16.77;;;16.67;;
9270;SDS011;4673;53.458;9.940;2022-09-09T02:16:40;18.27;;;18.17;;
9270;SDS011;4673;53.458;9.940;2022-09-09T02:19:11;18.23;;;18.13;;
9270;SDS011;4673;53.458;9.940;2022-09-09T02:21:44;17.60;;;17.50;;
9270;SDS011;4673;53.458;9.940;2022-09-09T02:24:12;18.57;;;18.40;;
9270;SDS011;4673;53.458;9.940;2022-09-09T02:26:41;16.63;;;16.53;;
9270;SDS011;4673;53.458;9.940;2022-09-09T02:29:14;18.33;;;18.23;;
9270;SDS011;4673;53.458;9.940;2022-09-09T02:31:46;18.30;;;18.13;;
9270;SDS011;4673;53.458;9.940;2022-09-09T02:34:14;16.63;;;16.53;;
9270;SDS011;4673;53.458;9.940;2022-09-09T02:36:43;17.67;;;17.57;;
9270;SDS011;4673;53.458;9.940;2022-09-09T02:39:13;18.13;;;18.03;;
9270;SDS011;4673;53.458;9.940;2022-09-09T02:41:39;17.87;;;17.77;;
9270;SDS011;4673;53.458;9.940;2022-09-09T02:44:13;17.60;;;17.50;;
9270;SDS011;4673;53.458;9.940;2022-09-09T02:47:28;16.93;;;16.83;;
9270;SDS011;4673;53.458;9.940;2022-09-09T02:49:28;18.43;;;18.33;;
9270;SDS011;4673;53.458;9.940;2022-09-09T02:52:08;18.60;;;18.43;;
9270;SDS011;4673;53.458;9.940;2022-09-09T02:54:41;19.93;;;19.83;;
9270;SDS011;4673;53.458;9.940;2022-09-09T03:00:03;19.10;;;19.00;;
9270;SDS011;4673;53.458;9.940;2022-09-09T03:02:30;19.43;;;19.23;;
9270;SDS011;4673;53.458;9.940;2022-09-09T03:04:55;18.90;;;18.70;;
9270;SDS011;4673;53.458;9.940;2022-09-09T03:07:21;18.40;;;18.30;;
9270;SDS011;4673;53.458;9.940;2022-09-09T03:09:47;18.07;;;17.97;;
9270;SDS011;4673;53.458;9.940;2022-09-09T03:12:13;19.00;;;18.83;;
9270;SDS011;4673;53.458;9.940;2022-09-09T03:14:39;17.20;;;17.00;;
9270;SDS011;4673;53.458;9.940;2022-09-09T03:17:05;18.00;;;17.90;;
9270;SDS011;4673;53.458;9.940;2022-09-09T03:19:31;17.70;;;17.60;;
9270;SDS011;4673;53.458;9.940;2022-09-09T03:21:59;17.27;;;17.17;;
9270;SDS011;4673;53.458;9.940;2022-09-09T03:26:59;16.47;;;16.37;;
9270;SDS011;4673;53.458;9.940;2022-09-09T03:29:24;17.67;;;17.57;;
9270;SDS011;4673;53.458;9.940;2022-09-09T03:31:50;16.70;;;16.60;;
9270;SDS011;4673;53.458;9.940;2022-09-09T03:34:16;16.70;;;16.60;;
9270;SDS011;4673;53.458;9.940;2022-09-09T03:36:41;16.70;;;16.60;;
9270;SDS011;4673;53.458;9.940;2022-09-09T03:39:07;17.70;;;17.60;;
9270;SDS011;4673;53.458;9.940;2022-09-09T03:41:32;17.07;;;16.93;;
9270;SDS011;4673;53.458;9.940;2022-09-09T03:43:59;17.20;;;17.03;;
9270;SDS011;4673;53.458;9.940;2022-09-09T03:46:25;18.20;;;18.10;;
9270;SDS011;4673;53.458;9.940;2022-09-09T03:48:50;18.97;;;18.77;;
9270;SDS011;4673;53.458;9.940;2022-09-09T03:51:17;17.73;;;17.63;;
9270;SDS011;4673;53.458;9.940;2022-09-09T03:53:43;16.90;;;16.80;;
9270;SDS011;4673;53.458;9.940;2022-09-09T03:56:09;17.17;;;17.07;;
9270;SDS011;4673;53.458;9.940;2022-09-09T03:58:35;17.00;;;16.90;;
9270;SDS011;4673;53.458;9.940;2022-09-09T04:01:06;16.67;;;16.57;;
9270;SDS011;4673;53.458;9.940;2022-09-09T04:03:38;16.27;;;16.17;;
9270;SDS011;4673;53.458;9.940;2022-09-09T04:06:04;17.00;;;16.90;;
9270;SDS011;4673;53.458;9.940;2022-09-09T04:08:33;16.83;;;16.70;;
9270;SDS011;4673;53.458;9.940;2022-09-09T04:11:00;17.13;;;17.03;;
9270;SDS011;4673;53.458;9.940;2022-09-09T04:13:30;16.10;;;16.00;;
9270;SDS011;4673;53.458;9.940;2022-09-09T04:15:57;17.13;;;17.03;;
9270;SDS011;4673;53.458;9.940;2022-09-09T04:18:24;16.67;;;16.57;;
9270;SDS011;4673;53.458;9.940;2022-09-09T04:20:51;15.43;;;15.33;;
9270;SDS011;4673;53.458;9.940;2022-09-09T04:23:17;16.23;;;16.13;;
9270;SDS011;4673;53.458;9.940;2022-09-09T04:25:45;16.70;;;16.60;;
9270;SDS011;4673;53.458;9.940;2022-09-09T04:28:15;16.47;;;16.37;;
9270;SDS011;4673;53.458;9.940;2022-09-09T04:30:42;16.83;;;16.73;;
9270;SDS011;4673;53.458;9.940;2022-09-09T04:33:08;16.63;;;16.53;;
9270;SDS011;4673;53.458;9.940;2022-09-09T04:35:35;15.87;;;15.77;;
9270;SDS011;4673;53.458;9.940;2022-09-09T04:38:01;15.67;;;15.57;;
9270;SDS011;4673;53.458;9.940;2022-09-09T04:40:28;14.40;;;14.30;;
9270;SDS011;4673;53.458;9.940;2022-09-09T04:42:54;14.27;;;14.17;;
9270;SDS011;4673;53.458;9.940;2022-09-09T04:45:22;14.03;;;13.93;;
9270;SDS011;4673;53.458;9.940;2022-09-09T04:47:47;13.63;;;13.53;;
9270;SDS011;4673;53.458;9.940;2022-09-09T04:50:14;13.60;;;13.50;;
9270;SDS011;4673;53.458;9.940;2022-09-09T04:52:39;12.33;;;12.30;;
9270;SDS011;4673;53.458;9.940;2022-09-09T04:55:06;12.40;;;12.30;;
9270;SDS011;4673;53.458;9.940;2022-09-09T04:57:32;11.30;;;11.20;;
9270;SDS011;4673;53.458;9.940;2022-09-09T04:59:59;11.90;;;11.80;;
9270;SDS011;4673;53.458;9.940;2022-09-09T05:02:25;11.60;;;11.50;;
9270;SDS011;4673;53.458;9.940;2022-09-09T05:04:51;11.73;;;11.63;;
9270;SDS011;4673;53.458;9.940;2022-09-09T05:07:17;11.03;;;10.93;;
9270;SDS011;4673;53.458;9.940;2022-09-09T05:09:42;11.63;;;11.53;;
9270;SDS011;4673;53.458;9.940;2022-09-09T05:12:08;10.57;;;10.57;;
9270;SDS011;4673;53.458;9.940;2022-09-09T05:14:33;10.73;;;10.63;;
9270;SDS011;4673;53.458;9.940;2022-09-09T05:17:02;10.37;;;10.33;;
9270;SDS011;4673;53.458;9.940;2022-09-09T05:19:28;10.50;;;10.40;;
9270;SDS011;4673;53.458;9.940;2022-09-09T05:21:53;11.53;;;11.47;;
9270;SDS011;4673;53.458;9.940;2022-09-09T05:24:19;10.10;;;10.00;;
9270;SDS011;4673;53.458;9.940;2022-09-09T05:26:44;9.93;;;9.93;;
9270;SDS011;4673;53.458;9.940;2022-09-09T05:29:10;10.10;;;10.00;;
9270;SDS011;4673;53.458;9.940;2022-09-09T05:31:36;10.20;;;10.10;;
9270;SDS011;4673;53.458;9.940;2022-09-09T05:34:01;9.63;;;9.63;;
9270;SDS011;4673;53.458;9.940;2022-09-09T05:36:27;9.53;;;9.53;;
9270;SDS011;4673;53.458;9.940;2022-09-09T05:38:53;10.00;;;10.00;;
9270;SDS011;4673;53.458;9.940;2022-09-09T05:41:19;8.93;;;8.93;;
9270;SDS011;4673;53.458;9.940;2022-09-09T05:43:45;9.07;;;9.07;;
9270;SDS011;4673;53.458;9.940;2022-09-09T05:46:19;7.77;;;7.77;;
9270;SDS011;4673;53.458;9.940;2022-09-09T05:48:47;8.13;;;8.13;;
9270;SDS011;4673;53.458;9.940;2022-09-09T05:51:16;8.40;;;8.40;;
9270;SDS011;4673;53.458;9.940;2022-09-09T05:53:47;7.50;;;7.50;;
9270;SDS011;4673;53.458;9.940;2022-09-09T05:56:15;7.57;;;7.57;;
9270;SDS011;4673;53.458;9.940;2022-09-09T05:58:43;8.20;;;8.20;;
9270;SDS011;4673;53.458;9.940;2022-09-09T06:01:10;6.90;;;6.90;;
9270;SDS011;4673;53.458;9.940;2022-09-09T06:03:38;7.82;;;7.82;;
9270;SDS011;4673;53.458;9.940;2022-09-09T06:06:06;6.97;;;6.97;;
9270;SDS011;4673;53.458;9.940;2022-09-09T06:08:37;6.95;;;6.95;;
9270;SDS011;4673;53.458;9.940;2022-09-09T06:11:05;6.93;;;6.93;;
9270;SDS011;4673;53.458;9.940;2022-09-09T06:13:33;7.50;;;7.50;;
9270;SDS011;4673;53.458;9.940;2022-09-09T06:16:00;7.03;;;7.03;;
9270;SDS011;4673;53.458;9.940;2022-09-09T06:18:26;7.50;;;7.50;;
9270;SDS011;4673;53.458;9.940;2022-09-09T06:20:55;6.63;;;6.63;;
9270;SDS011;4673;53.458;9.940;2022-09-09T06:23:22;5.80;;;5.80;;
9270;SDS011;4673;53.458;9.940;2022-09-09T06:25:48;6.95;;;6.95;;
9270;SDS011;4673;53.458;9.940;2022-09-09T06:28:15;7.25;;;7.25;;
9270;SDS011;4673;53.458;9.940;2022-09-09T06:30:41;6.50;;;6.50;;
9270;SDS011;4673;53.458;9.940;2022-09-09T06:33:06;6.95;;;6.95;;
9270;SDS011;4673;53.458;9.940;2022-09-09T06:35:32;7.20;;;7.20;;
9270;SDS011;4673;53.458;9.940;2022-09-09T06:37:58;6.20;;;6.20;;
9270;SDS011;4673;53.458;9.940;2022-09-09T06:40:23;5.95;;;5.95;;
9270;SDS011;4673;53.458;9.940;2022-09-09T06:42:49;6.35;;;6.35;;
9270;SDS011;4673;53.458;9.940;2022-09-09T06:45:16;6.57;;;6.57;;
9270;SDS011;4673;53.458;9.940;2022-09-09T06:47:42;6.50;;;6.50;;
9270;SDS011;4673;53.458;9.940;2022-09-09T06:50:08;6.03;;;6.03;;
9270;SDS011;4673;53.458;9.940;2022-09-09T06:52:35;5.32;;;5.32;;
9270;SDS011;4673;53.458;9.940;2022-09-09T06:55:01;5.25;;;5.25;;
9270;SDS011;4673;53.458;9.940;2022-09-09T06:57:27;5.20;;;5.20;;
9270;SDS011;4673;53.458;9.940;2022-09-09T06:59:53;5.18;;;5.18;;
9270;SDS011;4673;53.458;9.940;2022-09-09T07:02:18;5.20;;;5.20;;
9270;SDS011;4673;53.458;9.940;2022-09-09T07:04:44;6.13;;;6.13;;
9270;SDS011;4673;53.458;9.940;2022-09-09T07:07:10;5.55;;;5.55;;
9270;SDS011;4673;53.458;9.940;2022-09-09T07:09:38;4.85;;;4.85;;
9270;SDS011;4673;53.458;9.940;2022-09-09T07:12:05;4.45;;;4.45;;
9270;SDS011;4673;53.458;9.940;2022-09-09T07:14:31;5.03;;;5.03;;
9270;SDS011;4673;53.458;9.940;2022-09-09T07:16:58;4.32;;;4.32;;
9270;SDS011;4673;53.458;9.940;2022-09-09T07:19:25;4.75;;;4.75;;
9270;SDS011;4673;53.458;9.940;2022-09-09T07:21:51;4.93;;;4.93;;
9270;SDS011;4673;53.458;9.940;2022-09-09T07:24:16;4.18;;;4.18;;
9270;SDS011;4673;53.458;9.940;2022-09-09T07:26:42;4.75;;;4.75;;
9270;SDS011;4673;53.458;9.940;2022-09-09T07:29:09;4.63;;;4.63;;
9270;SDS011;4673;53.458;9.940;2022-09-09T07:31:35;3.88;;;3.88;;
9270;SDS011;4673;53.458;9.940;2022-09-09T07:34:03;3.70;;;3.70;;
9270;SDS011;4673;53.458;9.940;2022-09-09T07:36:30;3.65;;;3.65;;
9270;SDS011;4673;53.458;9.940;2022-09-09T07:38:59;3.65;;;3.65;;
9270;SDS011;4673;53.458;9.940;2022-09-09T07:41:28;3.88;;;3.88;;
9270;SDS011;4673;53.458;9.940;2022-09-09T07:43:57;3.45;;;3.45;;
9270;SDS011;4673;53.458;9.940;2022-09-09T07:46:23;4.05;;;4.05;;
9270;SDS011;4673;53.458;9.940;2022-09-09T07:48:52;3.80;;;3.80;;
9270;SDS011;4673;53.458;9.940;2022-09-09T07:51:21;3.95;;;3.95;;
9270;SDS011;4673;53.458;9.940;2022-09-09T07:53:52;3.65;;;3.65;;
9270;SDS011;4673;53.458;9.940;2022-09-09T07:56:19;3.33;;;3.33;;
9270;SDS011;4673;53.458;9.940;2022-09-09T07:58:48;3.88;;;3.88;;
9270;SDS011;4673;53.458;9.940;2022-09-09T08:01:17;3.70;;;3.70;;
9270;SDS011;4673;53.458;9.940;2022-09-09T08:03:46;3.85;;;3.85;;
9270;SDS011;4673;53.458;9.940;2022-09-09T08:06:17;3.85;;;3.85;;
9270;SDS011;4673;53.458;9.940;2022-09-09T08:08:42;3.25;;;3.25;;
9270;SDS011;4673;53.458;9.940;2022-09-09T08:11:12;3.38;;;3.38;;
9270;SDS011;4673;53.458;9.940;2022-09-09T08:13:41;3.53;;;3.53;;
9270;SDS011;4673;53.458;9.940;2022-09-09T08:16:08;3.50;;;3.50;;
9270;SDS011;4673;53.458;9.940;2022-09-09T08:18:36;3.40;;;3.40;;
9270;SDS011;4673;53.458;9.940;2022-09-09T08:23:43;3.10;;;3.10;;
9270;SDS011;4673;53.458;9.940;2022-09-09T08:26:24;2.92;;;2.92;;
9270;SDS011;4673;53.458;9.940;2022-09-09T08:28:53;3.45;;;3.45;;
9270;SDS011;4673;53.458;9.940;2022-09-09T08:31:21;2.80;;;2.80;;
9270;SDS011;4673;53.458;9.940;2022-09-09T08:33:49;2.40;;;2.40;;
9270;SDS011;4673;53.458;9.940;2022-09-09T08:36:18;3.22;;;3.22;;
9270;SDS011;4673;53.458;9.940;2022-09-09T08:38:49;2.75;;;2.75;;
9270;SDS011;4673;53.458;9.940;2022-09-09T08:51:50;2.53;;;2.53;;
9270;SDS011;4673;53.458;9.940;2022-09-09T08:54:20;2.10;;;2.10;;
9270;SDS011;4673;53.458;9.940;2022-09-09T08:56:46;2.17;;;2.17;;
9270;SDS011;4673;53.458;9.940;2022-09-09T08:59:12;2.15;;;2.15;;
9270;SDS011;4673;53.458;9.940;2022-09-09T09:01:49;1.90;;;1.90;;
9270;SDS011;4673;53.458;9.940;2022-09-09T09:04:49;1.80;;;1.80;;
9270;SDS011;4673;53.458;9.940;2022-09-09T09:13:19;2.25;;;2.25;;
9270;SDS011;4673;53.458;9.940;2022-09-09T09:15:54;1.85;;;1.85;;
9270;SDS011;4673;53.458;9.940;2022-09-09T09:18:25;1.67;;;1.67;;
9270;SDS011;4673;53.458;9.940;2022-09-09T09:26:31;1.50;;;1.50;;
9270;SDS011;4673;53.458;9.940;2022-09-09T09:29:00;1.50;;;1.50;;
9270;SDS011;4673;53.458;9.940;2022-09-09T09:31:37;1.40;;;1.40;;
9270;SDS011;4673;53.458;9.940;2022-09-09T09:34:03;1.48;;;1.48;;
9270;SDS011;4673;53.458;9.940;2022-09-09T09:36:42;1.40;;;1.40;;
9270;SDS011;4673;53.458;9.940;2022-09-09T09:39:22;1.40;;;1.40;;
9270;SDS011;4673;53.458;9.940;2022-09-09T09:41:52;1.20;;;1.20;;
9270;SDS011;4673;53.458;9.940;2022-09-09T09:44:29;1.92;;;1.92;;
9270;SDS011;4673;53.458;9.940;2022-09-09T09:49:54;1.25;;;1.25;;
9270;SDS011;4673;53.458;9.940;2022-09-09T09:52:31;1.40;;;1.40;;
9270;SDS011;4673;53.458;9.940;2022-09-09T09:54:59;1.33;;;1.33;;
9270;SDS011;4673;53.458;9.940;2022-09-09T09:57:29;1.55;;;1.55;;
9270;SDS011;4673;53.458;9.940;2022-09-09T10:00:03;1.90;;;1.90;;
9270;SDS011;4673;53.458;9.940;2022-09-09T10:02:44;1.42;;;1.42;;
9270;SDS011;4673;53.458;9.940;2022-09-09T10:05:18;1.38;;;1.38;;
9270;SDS011;4673;53.458;9.940;2022-09-09T10:07:46;1.27;;;1.27;;
9270;SDS011;4673;53.458;9.940;2022-09-09T10:10:28;1.23;;;1.23;;
9270;SDS011;4673;53.458;9.940;2022-09-09T10:13:18;1.20;;;1.20;;
9270;SDS011;4673;53.458;9.940;2022-09-09T10:16:08;0.98;;;0.98;;
9270;SDS011;4673;53.458;9.940;2022-09-09T10:19:05;1.10;;;1.10;;
9270;SDS011;4673;53.458;9.940;2022-09-09T10:21:57;1.15;;;1.15;;
9270;SDS011;4673;53.458;9.940;2022-09-09T10:30:17;0.90;;;0.90;;
9270;SDS011;4673;53.458;9.940;2022-09-09T10:32:49;1.10;;;1.10;;
9270;SDS011;4673;53.458;9.940;2022-09-09T10:38:05;1.50;;;1.50;;
9270;SDS011;4673;53.458;9.940;2022-09-09T10:52:07;1.27;;;1.27;;
9270;SDS011;4673;53.458;9.940;2022-09-09T10:54:32;1.10;;;1.10;;
9270;SDS011;4673;53.458;9.940;2022-09-09T10:59:54;1.25;;;1.25;;
9270;SDS011;4673;53.458;9.940;2022-09-09T11:02:28;1.50;;;1.50;;
9270;SDS011;4673;53.458;9.940;2022-09-09T11:05:57;1.48;;;1.48;;
9270;SDS011;4673;53.458;9.940;2022-09-09T11:08:14;1.20;;;1.20;;
9270;SDS011;4673;53.458;9.940;2022-09-09T11:10:48;1.30;;;1.30;;
9270;SDS011;4673;53.458;9.940;2022-09-09T11:18:55;1.45;;;1.45;;
9270;SDS011;4673;53.458;9.940;2022-09-09T11:21:37;1.17;;;1.17;;
9270;SDS011;4673;53.458;9.940;2022-09-09T11:24:12;1.65;;;1.65;;
9270;SDS011;4673;53.458;9.940;2022-09-09T11:26:47;2.00;;;2.00;;
9270;SDS011;4673;53.458;9.940;2022-09-09T11:29:45;1.70;;;1.70;;
9270;SDS011;4673;53.458;9.940;2022-09-09T11:32:47;1.60;;;1.60;;
9270;SDS011;4673;53.458;9.940;2022-09-09T11:40:54;1.33;;;1.33;;
9270;SDS011;4673;53.458;9.940;2022-09-09T11:45:57;1.38;;;1.38;;
9270;SDS011;4673;53.458;9.940;2022-09-09T11:48:30;1.50;;;1.50;;
9270;SDS011;4673;53.458;9.940;2022-09-09T11:53:32;1.50;;;1.50;;
9270;SDS011;4673;53.458;9.940;2022-09-09T11:56:00;1.65;;;1.65;;
9270;SDS011;4673;53.458;9.940;2022-09-09T11:58:36;1.50;;;1.50;;
9270;SDS011;4673;53.458;9.940;2022-09-09T12:01:14;1.40;;;1.40;;
9270;SDS011;4673;53.458;9.940;2022-09-09T12:03:48;1.13;;;1.13;;
9270;SDS011;4673;53.458;9.940;2022-09-09T12:09:16;1.50;;;1.50;;
9270;SDS011;4673;53.458;9.940;2022-09-09T12:11:48;1.20;;;1.20;;
9270;SDS011;4673;53.458;9.940;2022-09-09T12:17:21;1.20;;;1.20;;
9270;SDS011;4673;53.458;9.940;2022-09-09T12:25:18;1.85;;;1.85;;
9270;SDS011;4673;53.458;9.940;2022-09-09T12:30:41;1.33;;;1.33;;
9270;SDS011;4673;53.458;9.940;2022-09-09T12:33:16;1.20;;;1.20;;
9270;SDS011;4673;53.458;9.940;2022-09-09T12:35:44;1.58;;;1.58;;
9270;SDS011;4673;53.458;9.940;2022-09-09T12:38:19;1.92;;;1.92;;
9270;SDS011;4673;53.458;9.940;2022-09-09T12:40:55;1.88;;;1.88;;
9270;SDS011;4673;53.458;9.940;2022-09-09T12:43:22;1.10;;;1.10;;
9270;SDS011;4673;53.458;9.940;2022-09-09T12:45:50;1.42;;;1.42;;
9270;SDS011;4673;53.458;9.940;2022-09-09T12:48:22;2.30;;;2.30;;
9270;SDS011;4673;53.458;9.940;2022-09-09T12:50:56;1.65;;;1.65;;
9270;SDS011;4673;53.458;9.940;2022-09-09T12:53:24;1.55;;;1.55;;
9270;SDS011;4673;53.458;9.940;2022-09-09T12:56:06;2.30;;;2.30;;
9270;SDS011;4673;53.458;9.940;2022-09-09T12:58:33;1.77;;;1.77;;
9270;SDS011;4673;53.458;9.940;2022-09-09T13:01:01;2.15;;;2.15;;
9270;SDS011;4673;53.458;9.940;2022-09-09T13:03:30;2.20;;;2.20;;
9270;SDS011;4673;53.458;9.940;2022-09-09T13:06:13;1.88;;;1.88;;
9270;SDS011;4673;53.458;9.940;2022-09-09T13:08:52;2.72;;;2.72;;
9270;SDS011;4673;53.458;9.940;2022-09-09T13:11:23;2.15;;;2.15;;
9270;SDS011;4673;53.458;9.940;2022-09-09T13:13:56;3.83;;;3.83;;
9270;SDS011;4673;53.458;9.940;2022-09-09T13:16:23;3.35;;;3.35;;
9270;SDS011;4673;53.458;9.940;2022-09-09T13:18:55;2.38;;;2.38;;
9270;SDS011;4673;53.458;9.940;2022-09-09T13:21:30;2.53;;;2.53;;
9270;SDS011;4673;53.458;9.940;2022-09-09T13:23:57;2.50;;;2.50;;
9270;SDS011;4673;53.458;9.940;2022-09-09T13:26:28;3.20;;;3.20;;
9270;SDS011;4673;53.458;9.940;2022-09-09T13:28:55;3.67;;;3.67;;
9270;SDS011;4673;53.458;9.940;2022-09-09T13:31:33;3.08;;;3.08;;
9270;SDS011;4673;53.458;9.940;2022-09-09T13:34:12;3.60;;;3.60;;
9270;SDS011;4673;53.458;9.940;2022-09-09T13:37:01;2.97;;;2.97;;
9270;SDS011;4673;53.458;9.940;2022-09-09T13:39:30;3.22;;;3.22;;
9270;SDS011;4673;53.458;9.940;2022-09-09T13:41:59;3.30;;;3.30;;
9270;SDS011;4673;53.458;9.940;2022-09-09T13:44:36;3.13;;;3.13;;
9270;SDS011;4673;53.458;9.940;2022-09-09T13:47:05;3.50;;;3.50;;
9270;SDS011;4673;53.458;9.940;2022-09-09T13:49:44;3.40;;;3.40;;
9270;SDS011;4673;53.458;9.940;2022-09-09T13:52:14;3.47;;;3.47;;
9270;SDS011;4673;53.458;9.940;2022-09-09T13:54:42;3.72;;;3.72;;
9270;SDS011;4673;53.458;9.940;2022-09-09T13:57:14;4.22;;;4.22;;
9270;SDS011;4673;53.458;9.940;2022-09-09T13:59:50;4.22;;;4.22;;
9270;SDS011;4673;53.458;9.940;2022-09-09T14:02:17;3.92;;;3.92;;
9270;SDS011;4673;53.458;9.940;2022-09-09T14:04:43;4.00;;;4.00;;
9270;SDS011;4673;53.458;9.940;2022-09-09T14:07:16;4.25;;;4.25;;
9270;SDS011;4673;53.458;9.940;2022-09-09T14:09:43;4.57;;;4.57;;
9270;SDS011;4673;53.458;9.940;2022-09-09T14:12:13;3.15;;;3.15;;
9270;SDS011;4673;53.458;9.940;2022-09-09T14:14:40;3.03;;;3.03;;
9270;SDS011;4673;53.458;9.940;2022-09-09T14:17:07;3.15;;;3.15;;
9270;SDS011;4673;53.458;9.940;2022-09-09T14:19:33;1.90;;;1.90;;
9270;SDS011;4673;53.458;9.940;2022-09-09T14:21:59;2.17;;;2.17;;
9270;SDS011;4673;53.458;9.940;2022-09-09T14:24:26;1.73;;;1.73;;
9270;SDS011;4673;53.458;9.940;2022-09-09T14:26:52;1.60;;;1.60;;
9270;SDS011;4673;53.458;9.940;2022-09-09T14:29:18;2.33;;;2.33;;
9270;SDS011;4673;53.458;9.940;2022-09-09T14:31:44;1.98;;;1.98;;
9270;SDS011;4673;53.458;9.940;2022-09-09T14:34:09;1.75;;;1.75;;
9270;SDS011;4673;53.458;9.940;2022-09-09T14:36:36;2.15;;;2.15;;
9270;SDS011;4673;53.458;9.940;2022-09-09T14:39:05;1.63;;;1.63;;
9270;SDS011;4673;53.458;9.940;2022-09-09T14:41:31;1.95;;;1.95;;
9270;SDS011;4673;53.458;9.940;2022-09-09T14:43:56;2.00;;;2.00;;
9270;SDS011;4673;53.458;9.940;2022-09-09T14:46:22;2.20;;;2.20;;
9270;SDS011;4673;53.458;9.940;2022-09-09T14:48:48;2.00;;;2.00;;
9270;SDS011;4673;53.458;9.940;2022-09-09T14:51:18;1.92;;;1.92;;
9270;SDS011;4673;53.458;9.940;2022-09-09T14:53:44;2.00;;;2.00;;
9270;SDS011;4673;53.458;9.940;2022-09-09T14:58:42;1.77;;;1.77;;
9270;SDS011;4673;53.458;9.940;2022-09-09T15:01:09;2.10;;;2.10;;
9270;SDS011;4673;53.458;9.940;2022-09-09T15:03:39;2.10;;;2.10;;
9270;SDS011;4673;53.458;9.940;2022-09-09T15:06:07;2.33;;;2.33;;
9270;SDS011;4673;53.458;9.940;2022-09-09T15:08:35;2.50;;;2.50;;
9270;SDS011;4673;53.458;9.940;2022-09-09T15:11:01;2.40;;;2.40;;
9270;SDS011;4673;53.458;9.940;2022-09-09T15:13:28;2.20;;;2.20;;
9270;SDS011;4673;53.458;9.940;2022-09-09T15:15:54;2.22;;;2.22;;
9270;SDS011;4673;53.458;9.940;2022-09-09T15:18:20;2.10;;;2.10;;
9270;SDS011;4673;53.458;9.940;2022-09-09T15:20:46;2.55;;;2.55;;
9270;SDS011;4673;53.458;9.940;2022-09-09T15:23:12;2.60;;;2.60;;
9270;SDS011;4673;53.458;9.940;2022-09-09T15:25:49;2.53;;;2.53;;
9270;SDS011;4673;53.458;9.940;2022-09-09T15:28:17;2.30;;;2.30;;
9270;SDS011;4673;53.458;9.940;2022-09-09T15:30:43;2.58;;;2.58;;
9270;SDS011;4673;53.458;9.940;2022-09-09T15:33:09;2.20;;;2.20;;
9270;SDS011;4673;53.458;9.940;2022-09-09T15:35:35;2.20;;;2.20;;
9270;SDS011;4673;53.458;9.940;2022-09-09T15:38:01;1.95;;;1.95;;
9270;SDS011;4673;53.458;9.940;2022-09-09T15:40:29;2.40;;;2.40;;
9270;SDS011;4673;53.458;9.940;2022-09-09T15:42:57;1.75;;;1.75;;
9270;SDS011;4673;53.458;9.940;2022-09-09T15:45:23;2.10;;;2.10;;
9270;SDS011;4673;53.458;9.940;2022-09-09T15:47:49;2.03;;;2.03;;
9270;SDS011;4673;53.458;9.940;2022-09-09T15:50:15;1.88;;;1.88;;
9270;SDS011;4673;53.458;9.940;2022-09-09T15:52:41;1.77;;;1.77;;
9270;SDS011;4673;53.458;9.940;2022-09-09T15:55:07;1.65;;;1.65;;
9270;SDS011;4673;53.458;9.940;2022-09-09T15:57:35;1.63;;;1.63;;
9270;SDS011;4673;53.458;9.940;2022-09-09T16:00:02;1.83;;;1.83;;
9270;SDS011;4673;53.458;9.940;2022-09-09T16:02:29;1.35;;;1.35;;
9270;SDS011;4673;53.458;9.940;2022-09-09T16:04:55;1.25;;;1.25;;
9270;SDS011;4673;53.458;9.940;2022-09-09T16:07:22;1.45;;;1.45;;
9270;SDS011;4673;53.458;9.940;2022-09-09T16:09:48;1.58;;;1.58;;
9270;SDS011;4673;53.458;9.940;2022-09-09T16:12:16;1.20;;;1.20;;
9270;SDS011;4673;53.458;9.940;2022-09-09T16:14:42;1.40;;;1.40;;
9270;SDS011;4673;53.458;9.940;2022-09-09T16:17:07;1.08;;;1.08;;
9270;SDS011;4673;53.458;9.940;2022-09-09T16:19:33;1.33;;;1.33;;
9270;SDS011;4673;53.458;9.940;2022-09-09T16:21:59;0.80;;;0.80;;
9270;SDS011;4673;53.458;9.940;2022-09-09T16:24:25;1.02;;;1.02;;
9270;SDS011;4673;53.458;9.940;2022-09-09T16:26:52;1.27;;;1.27;;
9270;SDS011;4673;53.458;9.940;2022-09-09T16:29:19;1.13;;;1.13;;
9270;SDS011;4673;53.458;9.940;2022-09-09T16:31:47;0.98;;;0.98;;
9270;SDS011;4673;53.458;9.940;2022-09-09T16:34:14;1.08;;;1.08;;
9270;SDS011;4673;53.458;9.940;2022-09-09T16:36:42;1.10;;;1.10;;
9270;SDS011;4673;53.458;9.940;2022-09-09T16:39:13;1.23;;;1.23;;
9270;SDS011;4673;53.458;9.940;2022-09-09T16:41:40;1.42;;;1.42;;
9270;SDS011;4673;53.458;9.940;2022-09-09T16:44:08;1.27;;;1.27;;
9270;SDS011;4673;53.458;9.940;2022-09-09T16:46:36;1.33;;;1.33;;
9270;SDS011;4673;53.458;9.940;2022-09-09T16:49:07;1.05;;;1.05;;
9270;SDS011;4673;53.458;9.940;2022-09-09T16:51:39;1.20;;;1.20;;
9270;SDS011;4673;53.458;9.940;2022-09-09T16:54:07;1.60;;;1.60;;
9270;SDS011;4673;53.458;9.940;2022-09-09T16:56:34;1.05;;;1.05;;
9270;SDS011;4673;53.458;9.940;2022-09-09T16:59:09;1.17;;;1.17;;
9270;SDS011;4673;53.458;9.940;2022-09-09T17:01:40;1.30;;;1.30;;
9270;SDS011;4673;53.458;9.940;2022-09-09T17:04:07;1.73;;;1.73;;
9270;SDS011;4673;53.458;9.940;2022-09-09T17:06:41;2.45;;;2.45;;
9270;SDS011;4673;53.458;9.940;2022-09-09T17:09:08;1.33;;;1.33;;
9270;SDS011;4673;53.458;9.940;2022-09-09T17:11:35;1.48;;;1.48;;
9270;SDS011;4673;53.458;9.940;2022-09-09T17:14:02;1.60;;;1.60;;
9270;SDS011;4673;53.458;9.940;2022-09-09T17:16:29;2.28;;;2.28;;
9270;SDS011;4673;53.458;9.940;2022-09-09T17:18:56;2.00;;;2.00;;
9270;SDS011;4673;53.458;9.940;2022-09-09T17:21:24;1.90;;;1.90;;
9270;SDS011;4673;53.458;9.940;2022-09-09T17:23:51;2.00;;;2.00;;
9270;SDS011;4673;53.458;9.940;2022-09-09T17:26:18;2.10;;;2.10;;
9270;SDS011;4673;53.458;9.940;2022-09-09T17:28:46;2.00;;;2.00;;
9270;SDS011;4673;53.458;9.940;2022-09-09T17:31:13;2.03;;;2.03;;
9270;SDS011;4673;53.458;9.940;2022-09-09T17:33:41;1.90;;;1.90;;
9270;SDS011;4673;53.458;9.940;2022-09-09T17:36:09;1.95;;;1.95;;
9270;SDS011;4673;53.458;9.940;2022-09-09T17:38:37;2.20;;;2.20;;
9270;SDS011;4673;53.458;9.940;2022-09-09T17:41:07;1.67;;;1.67;;
9270;SDS011;4673;53.458;9.940;2022-09-09T17:43:35;2.97;;;2.97;;